createdAt,value
2023-04-15T00:00:15.668Z,89.01
2023-04-15T00:01:15.661Z,89.22
2023-04-15T00:02:15.743Z,89.38
2023-04-15T00:03:15.806Z,89.38
2023-04-15T00:04:15.703Z,89.38
2023-04-15T00:05:15.638Z,89.69
2023-04-15T00:06:15.641Z,90.20
2023-04-15T00:07:15.642Z,89.28
2023-04-15T00:08:15.669Z,89.07
2023-04-15T00:09:15.643Z,88.61
2023-04-15T00:10:15.620Z,88.65
2023-04-15T00:11:15.609Z,88.61
2023-04-15T00:12:15.615Z,88.76
2023-04-15T00:13:15.608Z,88.65
2023-04-15T00:14:15.596Z,88.34
2023-04-15T00:15:15.598Z,87.73
2023-04-15T00:16:15.642Z,88.14
2023-04-15T00:17:15.580Z,88.96
2023-04-15T00:18:15.578Z,88.86
2023-04-15T00:19:15.577Z,88.90
2023-04-15T00:20:15.568Z,89.32
2023-04-15T00:21:15.562Z,89.11
2023-04-15T00:22:15.562Z,89.32
2023-04-15T00:23:15.552Z,89.32
2023-04-15T00:24:15.546Z,89.94
2023-04-15T00:25:15.571Z,90.25
2023-04-15T00:26:15.535Z,90.14
2023-04-15T00:27:15.529Z,89.42
2023-04-15T00:28:15.557Z,89.36
2023-04-15T00:29:15.519Z,89.22
2023-04-15T00:30:15.514Z,89.42
2023-04-15T00:31:15.584Z,89.32
2023-04-15T00:32:15.506Z,88.59
2023-04-15T00:33:15.506Z,89.04
2023-04-15T00:34:15.503Z,89.36
2023-04-15T00:35:15.498Z,89.36
2023-04-15T00:36:15.495Z,89.36
2023-04-15T00:37:15.476Z,89.36
2023-04-15T00:38:15.576Z,89.36
2023-04-15T00:39:15.473Z,90.29
2023-04-15T00:40:15.466Z,90.08
2023-04-15T00:41:15.476Z,90.02
2023-04-15T00:42:15.459Z,90.02
2023-04-15T00:43:15.446Z,89.71
2023-04-15T00:44:15.447Z,90.44
2023-04-15T00:45:15.441Z,90.23
2023-04-15T00:46:15.468Z,90.44
2023-04-15T00:47:15.427Z,90.33
2023-04-15T00:48:15.775Z,90.60
2023-04-15T00:49:15.416Z,91.22
2023-04-15T00:50:15.413Z,91.01
2023-04-15T00:51:15.406Z,90.29
2023-04-15T00:52:15.402Z,89.98
2023-04-15T00:53:15.396Z,90.29
2023-04-15T00:54:15.393Z,90.39
2023-04-15T00:55:15.386Z,90.08
2023-04-15T00:56:15.398Z,90.29
2023-04-15T00:57:15.392Z,90.08
2023-04-15T00:58:15.376Z,90.29
2023-04-15T00:59:15.368Z,89.98
2023-04-15T01:00:15.384Z,89.98
2023-04-15T01:01:15.366Z,90.08
2023-04-15T01:02:15.460Z,89.98
2023-04-15T01:03:15.551Z,89.87
2023-04-15T01:04:15.467Z,90.19
2023-04-15T01:05:15.336Z,90.04
2023-04-15T01:06:15.339Z,89.62
2023-04-15T01:07:15.321Z,90.08
2023-04-15T01:08:15.322Z,90.04
2023-04-15T01:09:15.318Z,90.04
2023-04-15T01:10:15.320Z,89.98
2023-04-15T01:11:15.347Z,90.29
2023-04-15T01:12:15.302Z,90.19
2023-04-15T01:13:15.308Z,89.36
2023-04-15T01:14:15.289Z,89.56
2023-04-15T01:15:15.290Z,89.36
2023-04-15T01:16:15.382Z,88.94
2023-04-15T01:17:15.270Z,89.36
2023-04-15T01:18:15.272Z,89.36
2023-04-15T01:19:15.261Z,89.77
2023-04-15T01:20:15.267Z,90.08
2023-04-15T01:21:15.269Z,90.29
2023-04-15T01:22:15.271Z,89.56
2023-04-15T01:23:15.237Z,90.19
2023-04-15T01:24:15.240Z,90.19
2023-04-15T01:25:15.230Z,90.33
2023-04-15T01:26:15.223Z,89.50
2023-04-15T01:27:15.226Z,89.40
2023-04-15T01:28:15.216Z,89.50
2023-04-15T01:29:15.225Z,89.71
2023-04-15T01:30:15.207Z,89.40
2023-04-15T01:31:15.212Z,89.81
2023-04-15T01:32:15.192Z,89.81
2023-04-15T01:33:15.195Z,90.12
2023-04-15T01:34:15.188Z,89.86
2023-04-15T01:35:15.184Z,90.37
2023-04-15T01:36:15.175Z,90.68
2023-04-15T01:37:15.164Z,90.52
2023-04-15T01:38:15.163Z,91.14
2023-04-15T01:39:15.156Z,90.37
2023-04-15T01:40:15.150Z,89.65
2023-04-15T01:41:15.150Z,90.26
2023-04-15T01:42:15.143Z,89.86
2023-04-15T01:43:15.133Z,90.62
2023-04-15T01:44:15.143Z,90.00
2023-04-15T01:45:15.138Z,89.96
2023-04-15T01:46:15.147Z,90.41
2023-04-15T01:47:15.123Z,90.78
2023-04-15T01:48:15.478Z,90.47
2023-04-15T01:49:15.111Z,90.37
2023-04-15T01:50:15.102Z,90.62
2023-04-15T01:51:15.100Z,89.58
2023-04-15T01:52:15.090Z,89.34
2023-04-15T01:53:15.083Z,89.28
2023-04-15T01:54:15.080Z,89.13
2023-04-15T01:55:15.072Z,88.82
2023-04-15T01:56:16.511Z,88.71
2023-04-15T01:57:15.063Z,88.34
2023-04-15T01:58:15.099Z,87.72
2023-04-15T01:59:15.055Z,87.76
2023-04-15T02:00:15.045Z,88.69
2023-04-15T02:01:15.115Z,89.31
2023-04-15T02:02:15.063Z,90.35
2023-04-15T02:03:15.108Z,90.04
2023-04-15T02:04:15.032Z,91.39
2023-04-15T02:05:15.026Z,91.76
2023-04-15T02:06:15.025Z,91.86
2023-04-15T02:07:15.007Z,90.72
2023-04-15T02:08:15.008Z,90.41
2023-04-15T02:09:14.996Z,89.79
2023-04-15T02:10:14.992Z,89.69
2023-04-15T02:11:14.991Z,89.48
2023-04-15T02:12:14.995Z,89.58
2023-04-15T02:13:14.975Z,90.41
2023-04-15T02:14:14.973Z,89.79
2023-04-15T02:15:14.965Z,90.31
2023-04-15T02:16:14.992Z,90.93
2023-04-15T02:17:14.979Z,91.18
2023-04-15T02:18:14.948Z,90.97
2023-04-15T02:19:14.944Z,92.01
2023-04-15T02:20:14.942Z,91.70
2023-04-15T02:21:14.958Z,91.60
2023-04-15T02:22:14.935Z,92.01
2023-04-15T02:23:14.920Z,92.11
2023-04-15T02:24:14.919Z,91.39
2023-04-15T02:25:14.917Z,91.08
2023-04-15T02:26:14.912Z,91.22
2023-04-15T02:27:14.902Z,90.81
2023-04-15T02:28:14.894Z,90.50
2023-04-15T02:29:14.889Z,89.56
2023-04-15T02:30:14.883Z,89.56
2023-04-15T02:31:14.932Z,89.92
2023-04-15T02:32:14.884Z,89.87
2023-04-15T02:33:14.887Z,89.92
2023-04-15T02:34:14.881Z,90.12
2023-04-15T02:35:14.861Z,90.64
2023-04-15T02:36:14.859Z,90.23
2023-04-15T02:37:14.855Z,90.54
2023-04-15T02:38:14.840Z,90.44
2023-04-15T02:39:14.834Z,90.12
2023-04-15T02:40:14.855Z,90.33
2023-04-15T02:41:14.828Z,90.85
2023-04-15T02:42:14.828Z,91.78
2023-04-15T02:43:14.812Z,91.89
2023-04-15T02:44:14.832Z,91.37
2023-04-15T02:45:14.804Z,92.10
2023-04-15T02:46:15.070Z,91.99
2023-04-15T02:47:14.789Z,91.99
2023-04-15T02:48:14.785Z,91.78
2023-04-15T02:49:14.796Z,92.36
2023-04-15T02:50:14.776Z,92.78
2023-04-15T02:51:14.769Z,92.57
2023-04-15T02:52:14.762Z,91.64
2023-04-15T02:53:14.958Z,91.22
2023-04-15T02:54:14.754Z,90.39
2023-04-15T02:55:14.764Z,90.60
2023-04-15T02:56:14.753Z,90.02
2023-04-15T02:57:14.735Z,89.71
2023-04-15T02:58:14.727Z,90.33
2023-04-15T02:59:14.718Z,90.64
2023-04-15T03:00:14.716Z,91.47
2023-04-15T03:01:14.885Z,91.89
2023-04-15T03:02:14.769Z,91.37
2023-04-15T03:03:14.831Z,91.58
2023-04-15T03:04:14.926Z,91.64
2023-04-15T03:05:14.715Z,92.20
2023-04-15T03:06:14.683Z,93.29
2023-04-15T03:07:14.678Z,93.29
2023-04-15T03:08:14.671Z,92.78
2023-04-15T03:09:14.663Z,92.47
2023-04-15T03:10:14.660Z,91.85
2023-04-15T03:11:14.656Z,91.33
2023-04-15T03:12:14.651Z,91.12
2023-04-15T03:13:14.641Z,91.06
2023-04-15T03:14:14.642Z,91.12
2023-04-15T03:15:14.638Z,90.91
2023-04-15T03:16:14.740Z,91.33
2023-04-15T03:17:14.620Z,91.53
2023-04-15T03:18:14.620Z,91.95
2023-04-15T03:19:14.619Z,91.95
2023-04-15T03:20:14.670Z,91.64
2023-04-15T03:22:14.607Z,91.91
2023-04-15T03:23:14.586Z,91.70
2023-04-15T03:24:14.574Z,91.39
2023-04-15T03:25:14.568Z,91.08
2023-04-15T03:26:14.561Z,90.56
2023-04-15T03:27:14.563Z,90.25
2023-04-15T03:28:14.554Z,89.36
2023-04-15T03:29:14.547Z,88.94
2023-04-15T03:30:14.541Z,89.15
2023-04-15T03:31:14.574Z,89.67
2023-04-15T03:32:14.530Z,89.56
2023-04-15T03:33:14.535Z,89.87
2023-04-15T03:34:14.519Z,89.81
2023-04-15T03:35:14.516Z,90.50
2023-04-15T03:36:14.512Z,90.39
2023-04-15T03:37:14.502Z,90.64
2023-04-15T03:38:14.516Z,90.75
2023-04-15T03:39:14.493Z,90.75
2023-04-15T03:40:14.502Z,91.06
2023-04-15T03:41:14.502Z,91.99
2023-04-15T03:42:14.477Z,91.89
2023-04-15T03:43:14.481Z,91.68
2023-04-15T03:44:14.465Z,91.99
2023-04-15T03:45:14.459Z,91.68
2023-04-15T03:46:14.485Z,91.99
2023-04-15T03:47:14.456Z,91.78
2023-04-15T03:48:17.454Z,93.23
2023-04-15T03:49:14.436Z,93.54
2023-04-15T03:50:14.427Z,92.82
2023-04-15T03:51:14.428Z,93.65
2023-04-15T03:52:14.433Z,93.19
2023-04-15T03:53:14.820Z,92.57
2023-04-15T03:54:14.431Z,92.57
2023-04-15T03:55:14.406Z,91.47
2023-04-15T03:56:14.405Z,91.89
2023-04-15T03:57:14.416Z,91.16
2023-04-15T03:58:14.397Z,90.85
2023-04-15T03:59:14.381Z,91.89
2023-04-15T04:00:14.383Z,91.16
2023-04-15T04:01:14.368Z,92.20
2023-04-15T04:02:14.426Z,92.61
2023-04-15T04:03:14.540Z,93.13
2023-04-15T04:04:14.514Z,93.13
2023-04-15T04:05:14.347Z,92.61
2023-04-15T04:06:14.335Z,92.82
2023-04-15T04:07:14.332Z,92.30
2023-04-15T04:08:14.326Z,91.78
2023-04-15T04:09:14.318Z,91.58
2023-04-15T04:10:14.331Z,91.47
2023-04-15T04:11:14.314Z,91.58
2023-04-15T04:12:14.305Z,91.58
2023-04-15T04:13:14.300Z,91.68
2023-04-15T04:14:14.289Z,91.99
2023-04-15T04:15:14.323Z,92.30
2023-04-15T04:16:14.393Z,93.13
2023-04-15T04:17:14.356Z,92.61
2023-04-15T04:18:14.269Z,93.13
2023-04-15T04:19:14.263Z,93.33
2023-04-15T04:20:14.261Z,92.82
2023-04-15T04:21:14.257Z,93.65
2023-04-15T04:22:14.243Z,93.81
2023-04-15T04:23:14.240Z,94.43
2023-04-15T04:24:14.241Z,94.74
2023-04-15T04:25:14.222Z,95.16
2023-04-15T04:26:14.243Z,95.22
2023-04-15T04:27:14.223Z,95.74
2023-04-15T04:28:14.211Z,96.05
2023-04-15T04:29:14.210Z,96.47
2023-04-15T04:30:14.202Z,96.05
2023-04-15T04:31:14.195Z,95.59
2023-04-15T04:32:14.228Z,95.70
2023-04-15T04:33:14.178Z,95.54
2023-04-15T04:34:14.177Z,95.59
2023-04-15T04:35:14.175Z,95.65
2023-04-15T04:36:14.166Z,95.44
2023-04-15T04:37:14.154Z,95.24
2023-04-15T04:38:14.156Z,94.62
2023-04-15T04:39:14.150Z,94.31
2023-04-15T04:40:14.143Z,93.48
2023-04-15T04:41:14.141Z,93.21
2023-04-15T04:42:14.148Z,93.41
2023-04-15T04:43:14.129Z,92.44
2023-04-15T04:44:14.131Z,93.27
2023-04-15T04:45:14.153Z,93.37
2023-04-15T04:46:14.161Z,93.89
2023-04-15T04:47:14.153Z,93.99
2023-04-15T04:48:14.102Z,94.10
2023-04-15T04:49:14.085Z,93.95
2023-04-15T04:50:14.083Z,94.51
2023-04-15T04:51:14.075Z,94.47
2023-04-15T04:52:14.072Z,94.16
2023-04-15T04:53:14.074Z,93.64
2023-04-15T04:54:14.062Z,93.64
2023-04-15T04:55:14.055Z,93.64
2023-04-15T04:56:14.058Z,94.16
2023-04-15T04:57:14.043Z,94.26
2023-04-15T04:58:14.068Z,94.26
2023-04-15T04:59:14.028Z,94.22
2023-04-15T05:00:14.043Z,93.91
2023-04-15T05:01:14.034Z,94.73
2023-04-15T05:02:14.080Z,94.73
2023-04-15T05:03:14.126Z,94.63
2023-04-15T05:04:14.116Z,93.87
2023-04-15T05:05:14.008Z,94.18
2023-04-15T05:06:13.988Z,94.22
2023-04-15T05:07:13.983Z,94.28
2023-04-15T05:08:13.980Z,94.18
2023-04-15T05:09:13.979Z,94.18
2023-04-15T05:10:13.971Z,93.97
2023-04-15T05:11:13.962Z,93.04
2023-04-15T05:12:13.959Z,93.24
2023-04-15T05:13:13.949Z,92.93
2023-04-15T05:14:13.968Z,92.00
2023-04-15T05:15:13.939Z,93.04
2023-04-15T05:16:13.963Z,92.21
2023-04-15T05:17:13.934Z,91.34
2023-04-15T05:18:13.933Z,90.93
2023-04-15T05:19:13.926Z,90.83
2023-04-15T05:20:13.923Z,90.83
2023-04-15T05:21:13.915Z,90.31
2023-04-15T05:22:13.902Z,90.41
2023-04-15T05:23:13.905Z,90.35
2023-04-15T05:24:13.897Z,90.52
2023-04-15T05:25:13.895Z,91.03
2023-04-15T05:26:13.885Z,91.55
2023-04-15T05:27:13.880Z,91.24
2023-04-15T05:28:13.873Z,91.59
2023-04-15T05:29:13.868Z,90.93
2023-04-15T05:30:13.946Z,90.41
2023-04-15T05:31:13.880Z,90.31
2023-04-15T05:32:13.854Z,90.83
2023-04-15T05:33:13.844Z,90.72
2023-04-15T05:34:13.844Z,91.03
2023-04-15T05:35:13.841Z,91.59
2023-04-15T05:36:13.853Z,91.65
2023-04-15T05:37:13.835Z,91.86
2023-04-15T05:38:13.833Z,92.38
2023-04-15T05:39:13.814Z,92.07
2023-04-15T05:40:13.808Z,92.13
2023-04-15T05:41:13.804Z,92.23
2023-04-15T05:42:13.796Z,92.02
2023-04-15T05:43:13.805Z,91.92
2023-04-15T05:44:13.788Z,92.02
2023-04-15T05:45:13.778Z,91.82
2023-04-15T05:46:13.808Z,91.82
2023-04-15T05:47:13.766Z,91.67
2023-04-15T05:48:13.768Z,91.98
2023-04-15T05:49:13.757Z,91.56
2023-04-15T05:50:13.755Z,91.26
2023-04-15T05:51:13.746Z,91.22
2023-04-15T05:52:13.747Z,91.01
2023-04-15T05:53:13.733Z,91.11
2023-04-15T05:54:13.736Z,91.22
2023-04-15T05:55:13.726Z,91.01
2023-04-15T05:56:13.720Z,91.22
2023-04-15T05:57:13.718Z,91.42
2023-04-15T05:58:13.726Z,90.39
2023-04-15T05:59:13.723Z,90.70
2023-04-15T06:00:13.700Z,90.76
2023-04-15T06:01:13.695Z,90.55
2023-04-15T06:02:13.752Z,90.45
2023-04-15T06:03:13.772Z,91.38
2023-04-15T06:04:13.777Z,90.97
2023-04-15T06:05:13.679Z,90.86
2023-04-15T06:06:13.672Z,90.51
2023-04-15T06:07:13.667Z,91.13
2023-04-15T06:08:13.662Z,91.38
2023-04-15T06:09:13.651Z,91.03
2023-04-15T06:10:13.658Z,90.92
2023-04-15T06:11:13.643Z,91.13
2023-04-15T06:12:13.639Z,91.44
2023-04-15T06:13:13.643Z,91.13
2023-04-15T06:14:13.627Z,91.30
2023-04-15T06:15:13.632Z,91.44
2023-04-15T06:16:13.716Z,91.03
2023-04-15T06:17:13.609Z,90.92
2023-04-15T06:18:13.626Z,91.50
2023-04-15T06:19:13.599Z,91.30
2023-04-15T06:20:13.595Z,91.09
2023-04-15T06:21:13.589Z,90.88
2023-04-15T06:22:13.591Z,91.09
2023-04-15T06:23:13.586Z,90.88
2023-04-15T06:24:13.572Z,90.67
2023-04-15T06:25:13.566Z,90.78
2023-04-15T06:26:13.566Z,91.19
2023-04-15T06:27:13.563Z,91.25
2023-04-15T06:28:13.588Z,90.73
2023-04-15T06:29:13.546Z,90.94
2023-04-15T06:30:13.541Z,91.25
2023-04-15T06:31:13.560Z,91.46
2023-04-15T06:32:13.551Z,91.25
2023-04-15T06:33:13.537Z,91.52
2023-04-15T06:34:13.556Z,91.21
2023-04-15T06:35:13.519Z,91.21
2023-04-15T06:36:13.514Z,91.31
2023-04-15T06:37:13.507Z,91.62
2023-04-15T06:38:13.500Z,91.47
2023-04-15T06:39:13.494Z,91.17
2023-04-15T06:40:13.512Z,90.96
2023-04-15T06:41:13.480Z,90.96
2023-04-15T06:42:13.482Z,89.89
2023-04-15T06:43:13.474Z,89.89
2023-04-15T06:44:13.472Z,90.30
2023-04-15T06:45:13.458Z,91.02
2023-04-15T06:46:13.548Z,90.26
2023-04-15T06:47:13.452Z,90.88
2023-04-15T06:48:13.456Z,90.88
2023-04-15T06:49:13.446Z,89.64
2023-04-15T06:50:13.471Z,89.75
2023-04-15T06:51:13.437Z,89.64
2023-04-15T06:52:13.440Z,89.50
2023-04-15T06:53:13.422Z,88.98
2023-04-15T06:54:13.622Z,89.60
2023-04-15T06:55:13.415Z,89.29
2023-04-15T06:56:13.453Z,89.91
2023-04-15T06:57:13.402Z,89.09
2023-04-15T06:58:13.406Z,89.70
2023-04-15T06:59:13.394Z,89.19
2023-04-15T07:00:13.390Z,89.46
2023-04-15T07:01:13.398Z,89.56
2023-04-15T07:02:13.408Z,89.15
2023-04-15T07:03:13.399Z,89.15
2023-04-15T07:04:13.461Z,88.74
2023-04-15T07:05:13.364Z,88.84
2023-04-15T07:06:13.382Z,89.04
2023-04-15T07:07:13.356Z,89.52
2023-04-15T07:08:13.374Z,89.62
2023-04-15T07:09:13.350Z,89.62
2023-04-15T07:10:13.344Z,89.31
2023-04-15T07:11:13.337Z,89.31
2023-04-15T07:12:13.336Z,88.59
2023-04-15T07:13:13.335Z,88.39
2023-04-15T07:14:13.335Z,88.29
2023-04-15T07:15:13.339Z,87.98
2023-04-15T07:16:13.361Z,87.67
2023-04-15T07:17:13.477Z,88.24
2023-04-15T07:18:13.306Z,87.84
2023-04-15T07:19:13.304Z,87.22
2023-04-15T07:20:13.314Z,87.84
2023-04-15T07:21:13.306Z,87.12
2023-04-15T07:22:13.303Z,87.02
2023-04-15T07:23:13.291Z,87.02
2023-04-15T07:24:13.278Z,86.50
2023-04-15T07:25:13.285Z,86.30
2023-04-15T07:26:13.276Z,86.57
2023-04-15T07:27:13.272Z,85.68
2023-04-15T07:28:13.278Z,86.09
2023-04-15T07:29:13.257Z,86.57
2023-04-15T07:30:13.249Z,86.46
2023-04-15T07:31:13.270Z,86.57
2023-04-15T07:32:13.253Z,85.85
2023-04-15T07:33:13.233Z,85.74
2023-04-15T07:34:13.234Z,85.74
2023-04-15T07:35:13.229Z,85.71
2023-04-15T07:36:13.229Z,85.64
2023-04-15T07:37:13.214Z,85.30
2023-04-15T07:38:13.254Z,84.06
2023-04-15T07:39:13.210Z,85.39
2023-04-15T07:40:13.297Z,85.50
2023-04-15T07:41:13.203Z,86.01
2023-04-15T07:42:13.202Z,85.80
2023-04-15T07:43:13.210Z,85.56
2023-04-15T07:44:13.205Z,83.96
2023-04-15T07:45:13.190Z,82.08
2023-04-15T07:46:13.234Z,83.00
2023-04-15T07:47:13.180Z,82.73
2023-04-15T07:48:13.183Z,83.41
2023-04-15T07:49:13.167Z,82.59
2023-04-15T07:50:13.172Z,82.39
2023-04-15T07:51:13.230Z,81.98
2023-04-15T07:52:13.155Z,81.77
2023-04-15T07:53:13.148Z,80.99
2023-04-15T07:54:13.318Z,80.68
2023-04-15T07:55:13.146Z,80.54
2023-04-15T07:56:13.139Z,80.37
2023-04-15T07:57:13.133Z,81.20
2023-04-15T07:58:13.134Z,81.60
2023-04-15T07:59:13.132Z,79.86
2023-04-15T08:00:13.123Z,80.47
2023-04-15T08:01:13.117Z,81.81
2023-04-15T08:02:13.164Z,81.71
2023-04-15T08:03:13.290Z,81.81
2023-04-15T08:04:13.331Z,81.40
2023-04-15T08:05:13.176Z,79.14
2023-04-15T08:06:13.095Z,80.68
2023-04-15T08:07:13.088Z,81.29
2023-04-15T08:08:13.088Z,81.09
2023-04-15T08:09:13.082Z,80.99
2023-04-15T08:10:13.097Z,80.68
2023-04-15T08:11:13.074Z,80.88
2023-04-15T08:12:13.072Z,80.68
2023-04-15T08:13:13.069Z,79.86
2023-04-15T08:14:13.061Z,80.27
2023-04-15T08:15:13.072Z,80.58
2023-04-15T08:16:13.096Z,80.88
2023-04-15T08:17:13.051Z,80.78
2023-04-15T08:18:13.045Z,81.36
2023-04-15T08:19:13.044Z,81.57
2023-04-15T08:20:13.031Z,82.28
2023-04-15T08:21:13.030Z,79.93
2023-04-15T08:22:17.586Z,80.85
2023-04-15T08:23:13.020Z,80.54
2023-04-15T08:24:13.056Z,79.93
2023-04-15T08:25:13.014Z,81.67
2023-04-15T08:26:13.032Z,82.96
2023-04-15T08:27:13.001Z,82.96
2023-04-15T08:28:13.011Z,81.94
2023-04-15T08:29:13.024Z,81.46
2023-04-15T08:30:12.993Z,80.91
2023-04-15T08:31:13.020Z,79.48
2023-04-15T08:32:13.011Z,80.71
2023-04-15T08:33:12.982Z,82.86
2023-04-15T08:34:12.977Z,81.05
2023-04-15T08:35:12.970Z,81.26
2023-04-15T08:36:12.971Z,81.15
2023-04-15T08:37:12.968Z,81.12
2023-04-15T08:38:12.967Z,80.51
2023-04-15T08:39:12.958Z,80.81
2023-04-15T08:40:12.950Z,82.39
2023-04-15T08:41:12.948Z,80.64
2023-04-15T08:42:12.959Z,80.33
2023-04-15T08:43:12.939Z,80.44
2023-04-15T08:44:12.937Z,80.54
2023-04-15T08:45:12.931Z,79.11
2023-04-15T08:46:12.928Z,80.44
2023-04-15T08:47:12.933Z,80.37
2023-04-15T08:48:12.919Z,80.47
2023-04-15T08:49:12.920Z,81.40
2023-04-15T08:50:12.915Z,81.40
2023-04-15T08:51:12.909Z,81.29
2023-04-15T08:52:12.907Z,79.66
2023-04-15T08:53:12.901Z,81.60
2023-04-15T08:54:12.912Z,83.14
2023-04-15T08:55:12.913Z,82.53
2023-04-15T08:56:12.887Z,82.83
2023-04-15T08:57:12.882Z,82.59
2023-04-15T08:58:12.924Z,81.57
2023-04-15T08:59:12.877Z,81.81
2023-04-15T09:00:12.884Z,80.99
2023-04-15T09:01:12.886Z,81.57
2023-04-15T09:02:12.905Z,80.85
2023-04-15T09:03:13.008Z,80.33
2023-04-15T09:04:12.970Z,80.95
2023-04-15T09:05:12.853Z,83.00
2023-04-15T09:06:12.868Z,80.74
2023-04-15T09:07:12.839Z,82.18
2023-04-15T09:08:12.913Z,82.79
2023-04-15T09:09:12.837Z,82.49
2023-04-15T09:10:12.828Z,83.41
2023-04-15T09:11:12.826Z,82.86
2023-04-15T09:12:12.818Z,82.18
2023-04-15T09:13:12.811Z,81.01
2023-04-15T09:14:12.824Z,82.49
2023-04-15T09:15:12.801Z,82.08
2023-04-15T09:16:12.824Z,82.49
2023-04-15T09:17:12.793Z,82.18
2023-04-15T09:18:12.785Z,82.04
2023-04-15T09:19:12.782Z,82.45
2023-04-15T09:20:12.777Z,81.57
2023-04-15T09:21:12.787Z,80.91
2023-04-15T09:22:12.778Z,80.74
2023-04-15T09:23:12.763Z,82.14
2023-04-15T09:24:12.759Z,82.35
2023-04-15T09:25:12.753Z,82.86
2023-04-15T09:26:12.746Z,80.91
2023-04-15T09:27:12.745Z,80.91
2023-04-15T09:28:12.737Z,80.51
2023-04-15T09:29:12.733Z,80.71
2023-04-15T09:30:12.752Z,80.51
2023-04-15T09:31:12.764Z,80.03
2023-04-15T09:32:12.717Z,80.23
2023-04-15T09:33:12.712Z,83.58
2023-04-15T09:34:12.709Z,82.55
2023-04-15T09:35:12.709Z,82.55
2023-04-15T09:36:12.703Z,82.92
2023-04-15T09:37:15.127Z,82.41
2023-04-15T09:38:12.688Z,81.70
2023-04-15T09:39:12.691Z,81.18
2023-04-15T09:40:12.690Z,80.88
2023-04-15T09:41:12.677Z,80.98
2023-04-15T09:42:12.668Z,82.37
2023-04-15T09:43:12.671Z,81.45
2023-04-15T09:44:12.665Z,80.02
2023-04-15T09:45:12.665Z,79.75
2023-04-15T09:46:12.706Z,78.31
2023-04-15T09:47:12.651Z,80.26
2023-04-15T09:48:12.641Z,81.76
2023-04-15T09:49:12.666Z,81.04
2023-04-15T09:50:12.641Z,81.15
2023-04-15T09:51:12.641Z,79.91
2023-04-15T09:52:12.623Z,79.82
2023-04-15T09:53:12.638Z,79.82
2023-04-15T09:54:12.619Z,79.47
2023-04-15T09:55:12.618Z,78.96
2023-04-15T09:56:12.611Z,77.42
2023-04-15T09:57:12.602Z,77.22
2023-04-15T09:58:12.639Z,77.63
2023-04-15T09:59:12.596Z,78.55
2023-04-15T10:00:12.647Z,77.90
2023-04-15T10:01:12.607Z,79.53
2023-04-15T10:02:12.726Z,80.15
2023-04-15T10:03:12.658Z,79.19
2023-04-15T10:04:12.659Z,78.52
2023-04-15T10:05:12.570Z,77.90
2023-04-15T10:06:12.573Z,78.11
2023-04-15T10:07:12.562Z,79.37
2023-04-15T10:08:12.553Z,79.37
2023-04-15T10:09:12.550Z,80.29
2023-04-15T10:10:12.549Z,78.96
2023-04-15T10:11:12.540Z,78.96
2023-04-15T10:12:12.553Z,79.88
2023-04-15T10:13:12.538Z,80.60
2023-04-15T10:14:12.538Z,79.47
2023-04-15T10:15:12.524Z,77.94
2023-04-15T10:16:12.549Z,79.68
2023-04-15T10:17:12.517Z,78.55
2023-04-15T10:18:12.530Z,79.78
2023-04-15T10:19:12.511Z,78.59
2023-04-15T10:20:12.529Z,78.65
2023-04-15T10:21:12.501Z,79.88
2023-04-15T10:22:12.489Z,79.06
2023-04-15T10:23:13.449Z,78.86
2023-04-15T10:24:12.481Z,80.08
2023-04-15T10:25:12.476Z,79.82
2023-04-15T10:26:12.484Z,79.71
2023-04-15T10:27:12.475Z,78.34
2023-04-15T10:28:12.460Z,79.57
2023-04-15T10:29:12.468Z,79.10
2023-04-15T10:30:12.470Z,78.89
2023-04-15T10:31:12.492Z,79.00
2023-04-15T10:32:12.450Z,78.79
2023-04-15T10:33:12.440Z,79.20
2023-04-15T10:34:12.468Z,78.65
2023-04-15T10:35:12.445Z,80.53
2023-04-15T10:36:12.440Z,79.98
2023-04-15T10:37:12.422Z,78.96
2023-04-15T10:38:12.414Z,79.78
2023-04-15T10:39:12.411Z,79.57
2023-04-15T10:40:12.414Z,79.06
2023-04-15T10:41:12.402Z,80.39
2023-04-15T10:42:12.403Z,80.29
2023-04-15T10:43:12.391Z,80.12
2023-04-15T10:44:12.403Z,80.90
2023-04-15T10:45:12.390Z,79.47
2023-04-15T10:46:12.400Z,78.38
2023-04-15T10:47:12.372Z,80.08
2023-04-15T10:48:12.438Z,81.21
2023-04-15T10:49:12.374Z,80.60
2023-04-15T10:50:12.377Z,81.21
2023-04-15T10:51:12.363Z,80.69
2023-04-15T10:52:12.355Z,80.90
2023-04-15T10:53:12.349Z,78.75
2023-04-15T10:54:12.339Z,79.78
2023-04-15T10:55:12.338Z,80.19
2023-04-15T10:56:12.332Z,80.08
2023-04-15T10:57:12.330Z,81.62
2023-04-15T10:58:12.327Z,80.69
2023-04-15T10:59:12.326Z,82.43
2023-04-15T11:00:12.668Z,81.21
2023-04-15T11:01:12.312Z,82.84
2023-04-15T11:02:12.412Z,82.57
2023-04-15T11:03:12.421Z,82.68
2023-04-15T11:04:12.427Z,81.65
2023-04-15T11:05:12.294Z,80.22
2023-04-15T11:06:12.307Z,80.94
2023-04-15T11:07:12.286Z,81.65
2023-04-15T11:08:12.276Z,80.74
2023-04-15T11:09:12.270Z,82.21
2023-04-15T11:10:12.306Z,82.78
2023-04-15T11:11:12.258Z,82.37
2023-04-15T11:12:12.259Z,83.39
2023-04-15T11:13:12.252Z,83.91
2023-04-15T11:14:12.248Z,82.17
2023-04-15T11:15:12.256Z,83.19
2023-04-15T11:16:12.241Z,81.56
2023-04-15T11:17:12.231Z,81.65
2023-04-15T11:18:12.271Z,82.00
2023-04-15T11:19:12.222Z,82.98
2023-04-15T11:20:12.253Z,82.27
2023-04-15T11:21:12.226Z,82.89
2023-04-15T11:22:12.226Z,81.86
2023-04-15T11:23:15.302Z,82.57
2023-04-15T11:24:12.218Z,81.86
2023-04-15T11:25:12.193Z,82.48
2023-04-15T11:26:12.587Z,82.64
2023-04-15T11:27:12.186Z,82.23
2023-04-15T11:28:12.253Z,82.57
2023-04-15T11:29:12.177Z,81.86
2023-04-15T11:30:12.213Z,82.78
2023-04-15T11:31:12.242Z,82.92
2023-04-15T11:32:12.211Z,82.10
2023-04-15T11:33:12.237Z,82.71
2023-04-15T11:34:12.150Z,83.47
2023-04-15T11:35:12.148Z,83.84
2023-04-15T11:36:12.142Z,84.56
2023-04-15T11:37:12.137Z,85.99
2023-04-15T11:38:12.220Z,84.25
2023-04-15T11:39:12.130Z,83.64
2023-04-15T11:40:12.131Z,83.74
2023-04-15T11:41:12.121Z,83.70
2023-04-15T11:42:12.114Z,83.81
2023-04-15T11:43:12.116Z,83.81
2023-04-15T11:44:12.105Z,83.46
2023-04-15T11:45:12.103Z,83.36
2023-04-15T11:46:12.129Z,82.23
2023-04-15T11:47:12.093Z,82.75
2023-04-15T11:48:12.104Z,81.62
2023-04-15T11:49:12.085Z,82.54
2023-04-15T11:50:12.085Z,83.25
2023-04-15T11:51:12.075Z,83.76
2023-04-15T11:52:12.069Z,83.32
2023-04-15T11:53:12.067Z,84.14
2023-04-15T11:54:12.079Z,82.29
2023-04-15T11:55:12.062Z,82.81
2023-04-15T11:56:12.074Z,83.42
2023-04-15T11:57:12.047Z,82.40
2023-04-15T11:58:12.836Z,81.88
2023-04-15T11:59:12.038Z,82.64
2023-04-15T12:00:12.030Z,83.25
2023-04-15T12:01:12.027Z,82.23
2023-04-15T12:02:12.110Z,81.93
2023-04-15T12:03:12.277Z,83.76
2023-04-15T12:04:12.184Z,82.68
2023-04-15T12:05:12.066Z,82.89
2023-04-15T12:06:12.004Z,82.31
2023-04-15T12:07:12.000Z,83.23
2023-04-15T12:08:11.993Z,83.84
2023-04-15T12:09:11.985Z,83.23
2023-04-15T12:10:12.128Z,83.95
2023-04-15T12:11:11.978Z,83.54
2023-04-15T12:12:11.984Z,83.23
2023-04-15T12:13:11.980Z,83.54
2023-04-15T12:14:11.964Z,83.78
2023-04-15T12:15:11.965Z,84.66
2023-04-15T12:16:12.000Z,85.28
2023-04-15T12:17:11.961Z,83.37
2023-04-15T12:18:12.042Z,82.62
2023-04-15T12:19:11.945Z,83.54
2023-04-15T12:20:11.946Z,84.25
2023-04-15T12:21:11.936Z,84.25
2023-04-15T12:22:11.937Z,83.84
2023-04-15T12:23:11.926Z,83.74
2023-04-15T12:24:11.914Z,83.23
2023-04-15T12:25:11.913Z,83.84
2023-04-15T12:26:11.924Z,83.84
2023-04-15T12:27:11.905Z,83.74
2023-04-15T12:28:11.904Z,82.82
2023-04-15T12:29:11.897Z,82.62
2023-04-15T12:30:11.901Z,82.41
2023-04-15T12:31:11.911Z,82.51
2023-04-15T12:32:11.939Z,83.84
2023-04-15T12:33:11.881Z,83.39
2023-04-15T12:34:11.873Z,83.54
2023-04-15T12:35:11.878Z,83.54
2023-04-15T12:36:11.873Z,83.23
2023-04-15T12:37:11.860Z,82.62
2023-04-15T12:38:11.851Z,83.54
2023-04-15T12:39:11.852Z,82.51
2023-04-15T12:40:11.848Z,83.47
2023-04-15T12:41:11.840Z,82.24
2023-04-15T12:42:11.854Z,82.62
2023-04-15T12:43:11.830Z,83.37
2023-04-15T12:44:11.831Z,83.17
2023-04-15T12:45:11.821Z,84.19
2023-04-15T12:46:11.837Z,83.98
2023-04-15T12:47:11.810Z,83.58
2023-04-15T12:48:11.806Z,84.60
2023-04-15T12:49:11.800Z,84.70
2023-04-15T12:50:11.806Z,83.37
2023-04-15T12:51:11.789Z,83.88
2023-04-15T12:52:11.785Z,83.78
2023-04-15T12:53:11.782Z,83.88